createdAt,value
2022-09-28T00:01:16.553Z,10.10
2022-09-28T00:03:43.448Z,10.10
2022-09-28T00:06:12.939Z,10.00
2022-09-28T00:08:42.098Z,10.00
2022-09-28T00:11:12.890Z,10.00
2022-09-28T00:13:40.411Z,10.00
2022-09-28T00:16:10.279Z,10.00
2022-09-28T00:18:37.299Z,10.00
2022-09-28T00:21:09.246Z,10.00
2022-09-28T00:23:55.450Z,10.00
2022-09-28T00:26:22.494Z,10.00
2022-09-28T00:28:55.852Z,10.00
2022-09-28T00:31:25.154Z,9.90
2022-09-28T00:33:58.209Z,9.90
2022-09-28T00:36:27.156Z,9.80
2022-09-28T00:38:57.714Z,9.80
2022-09-28T00:41:29.567Z,9.80
2022-09-28T00:44:44.579Z,9.80
2022-09-28T00:47:16.615Z,9.80
2022-09-28T00:50:05.075Z,9.80
2022-09-28T00:52:48.876Z,9.80
2022-09-28T00:55:22.954Z,9.80
2022-09-28T00:57:55.486Z,9.80
2022-09-28T01:00:22.367Z,9.80
2022-09-28T01:02:49.261Z,9.80
2022-09-28T01:05:17.958Z,9.80
2022-09-28T01:07:46.401Z,9.80
2022-09-28T01:10:14.156Z,9.80
2022-09-28T01:12:40.857Z,9.80
2022-09-28T01:15:08.222Z,9.80
2022-09-28T01:17:52.187Z,9.80
2022-09-28T01:20:34.283Z,9.90
2022-09-28T01:23:09.427Z,9.90
2022-09-28T01:25:58.476Z,9.90
2022-09-28T01:28:28.886Z,10.00
2022-09-28T01:31:14.118Z,10.10
2022-09-28T01:33:54.714Z,10.10
2022-09-28T01:36:30.298Z,10.20
2022-09-28T01:39:10.802Z,10.10
2022-09-28T01:41:40.293Z,10.20
2022-09-28T01:44:13.032Z,10.20
2022-09-28T01:46:49.802Z,10.20
2022-09-28T01:49:38.352Z,10.20
2022-09-28T01:52:32.225Z,10.20
2022-09-28T01:55:19.059Z,10.20
2022-09-28T01:57:54.505Z,10.30
2022-09-28T02:00:24.601Z,10.30
2022-09-28T02:03:00.058Z,10.30
2022-09-28T02:05:35.465Z,10.30
2022-09-28T02:08:09.789Z,10.30
2022-09-28T02:11:01.867Z,10.30
2022-09-28T02:13:32.874Z,10.40
2022-09-28T02:16:30.090Z,10.40
2022-09-28T02:18:59.309Z,10.40
2022-09-28T02:21:32.871Z,10.40
2022-09-28T02:24:07.275Z,10.50
2022-09-28T02:26:41.854Z,10.50
2022-09-28T02:29:08.795Z,10.50
2022-09-28T02:31:36.012Z,10.50
2022-09-28T02:34:05.209Z,10.60
2022-09-28T02:36:35.819Z,10.50
2022-09-28T02:39:02.641Z,10.50
2022-09-28T02:41:41.693Z,10.40
2022-09-28T02:44:43.606Z,10.40
2022-09-28T02:47:16.093Z,10.40
2022-09-28T02:50:14.414Z,10.40
2022-09-28T02:52:58.591Z,10.40
2022-09-28T02:56:00.878Z,10.40
2022-09-28T02:58:35.103Z,10.40
2022-09-28T03:01:34.807Z,10.40
2022-09-28T03:04:13.016Z,10.40
2022-09-28T03:06:50.033Z,10.40
2022-09-28T03:09:25.749Z,10.40
2022-09-28T03:11:56.846Z,10.40
2022-09-28T03:14:23.591Z,10.40
2022-09-28T03:16:50.565Z,10.40
2022-09-28T03:19:20.548Z,10.50
2022-09-28T03:21:47.290Z,10.50
2022-09-28T03:24:14.010Z,10.50
2022-09-28T03:26:43.352Z,10.40
2022-09-28T03:29:10.352Z,10.40
2022-09-28T03:31:37.142Z,10.30
2022-09-28T03:34:06.651Z,10.20
2022-09-28T03:36:33.408Z,10.20
2022-09-28T03:39:02.494Z,10.10
2022-09-28T03:41:31.326Z,10.10
2022-09-28T03:43:57.991Z,10.10
2022-09-28T03:46:24.925Z,10.10
2022-09-28T03:48:56.385Z,10.10
2022-09-28T03:51:25.224Z,10.10
2022-09-28T03:53:54.103Z,10.10
2022-09-28T03:56:23.293Z,10.10
2022-09-28T03:58:50.182Z,10.10
2022-09-28T04:01:18.057Z,10.00
2022-09-28T04:03:45.630Z,10.00
2022-09-28T04:06:14.974Z,10.00
2022-09-28T04:08:43.424Z,10.00
2022-09-28T04:11:12.589Z,10.10
2022-09-28T04:13:41.932Z,10.10
2022-09-28T04:16:10.800Z,10.20
2022-09-28T04:18:40.055Z,10.10
2022-09-28T04:21:10.336Z,10.20
2022-09-28T04:23:38.931Z,10.20
2022-09-28T04:26:08.264Z,10.20
2022-09-28T04:28:53.719Z,10.20
2022-09-28T04:31:23.048Z,10.30
2022-09-28T04:33:49.859Z,10.30
2022-09-28T04:36:17.568Z,10.30
2022-09-28T04:38:53.115Z,10.30
2022-09-28T04:41:22.506Z,10.30
2022-09-28T04:43:50.234Z,10.30
2022-09-28T04:46:19.727Z,10.30
2022-09-28T04:48:46.457Z,10.30
2022-09-28T04:51:15.894Z,10.30
2022-09-28T04:53:45.350Z,10.30
2022-09-28T04:56:14.027Z,10.30
2022-09-28T04:58:45.279Z,10.30
2022-09-28T05:01:16.782Z,10.30
2022-09-28T05:03:44.391Z,10.30
2022-09-28T05:06:15.505Z,10.30
2022-09-28T05:08:43.159Z,10.30
2022-09-28T05:11:13.463Z,10.30
2022-09-28T05:13:45.511Z,10.30
2022-09-28T05:16:14.763Z,10.30
2022-09-28T05:18:41.873Z,10.30
2022-09-28T05:21:15.618Z,10.20
2022-09-28T05:23:46.803Z,10.20
2022-09-28T05:26:18.774Z,10.20
2022-09-28T05:28:49.028Z,10.20
2022-09-28T05:31:18.274Z,10.20
2022-09-28T05:33:47.658Z,10.20
2022-09-28T05:36:14.706Z,10.20
2022-09-28T05:38:41.425Z,10.20
2022-09-28T05:41:08.200Z,10.10
2022-09-28T05:43:35.030Z,10.10
2022-09-28T05:46:02.023Z,10.10
2022-09-28T05:48:28.837Z,10.20
2022-09-28T05:50:59.541Z,10.20
2022-09-28T05:53:26.363Z,10.20
2022-09-28T05:56:02.329Z,10.20
2022-09-28T05:58:29.072Z,10.20
2022-09-28T06:00:56.917Z,10.20
2022-09-28T06:03:26.986Z,10.20
2022-09-28T06:05:56.304Z,10.30
2022-09-28T06:08:25.691Z,10.20
2022-09-28T06:10:52.409Z,10.20
2022-09-28T06:13:21.585Z,10.20
2022-09-28T06:15:48.476Z,10.20
2022-09-28T06:18:15.250Z,10.20
2022-09-28T06:20:44.633Z,10.20
2022-09-28T06:23:14.570Z,10.10
2022-09-28T06:25:42.411Z,10.10
2022-09-28T06:28:16.881Z,10.20
2022-09-28T06:30:45.177Z,10.20
2022-09-28T06:33:15.057Z,10.20
2022-09-28T06:35:42.466Z,10.20
2022-09-28T06:38:09.641Z,10.20
2022-09-28T06:40:37.262Z,10.20
2022-09-28T06:43:11.952Z,10.30
2022-09-28T06:45:42.957Z,10.30
2022-09-28T06:48:11.232Z,10.40
2022-09-28T06:50:42.359Z,10.50
2022-09-28T06:53:11.994Z,10.60
2022-09-28T06:55:42.645Z,10.70
2022-09-28T06:58:15.070Z,10.80
2022-09-28T07:00:42.080Z,10.80
2022-09-28T07:03:20.384Z,10.80
2022-09-28T07:05:50.191Z,10.80
2022-09-28T07:08:17.897Z,10.80
2022-09-28T07:10:51.838Z,10.80
2022-09-28T07:13:47.029Z,10.80
2022-09-28T07:16:10.043Z,10.90
2022-09-28T07:18:39.346Z,11.00
2022-09-28T07:21:08.341Z,11.00
2022-09-28T07:23:48.936Z,11.10
2022-09-28T07:26:23.971Z,11.20
2022-09-28T07:28:52.029Z,11.30
2022-09-28T07:31:21.267Z,11.40
2022-09-28T07:33:51.165Z,11.50
2022-09-28T07:36:20.921Z,11.60
2022-09-28T07:38:48.086Z,11.60
2022-09-28T07:41:17.048Z,11.70
2022-09-28T07:43:46.771Z,11.70
2022-09-28T07:46:13.632Z,11.80
2022-09-28T07:48:42.069Z,11.80
2022-09-28T07:51:11.589Z,11.80
2022-09-28T07:53:38.485Z,11.80
2022-09-28T07:56:10.468Z,11.90
2022-09-28T07:58:41.066Z,12.00
2022-09-28T08:01:10.680Z,12.10
2022-09-28T08:03:38.528Z,12.10
2022-09-28T08:06:09.705Z,12.20
2022-09-28T08:08:36.475Z,12.30
2022-09-28T08:11:13.704Z,12.40
2022-09-28T08:13:45.489Z,12.60
2022-09-28T08:16:14.830Z,12.70
2022-09-28T08:18:44.201Z,12.80
2022-09-28T08:21:29.628Z,12.80
2022-09-28T08:23:56.549Z,12.80
2022-09-28T08:26:23.432Z,12.80
2022-09-28T08:28:50.203Z,12.90
2022-09-28T08:31:17.290Z,13.00
2022-09-28T08:33:44.017Z,13.10
2022-09-28T08:36:12.979Z,13.30
2022-09-28T08:38:39.708Z,13.30
2022-09-28T08:41:18.410Z,13.30
2022-09-28T08:43:50.355Z,13.30
2022-09-28T08:46:23.883Z,13.30
2022-09-28T08:49:24.867Z,13.40
2022-09-28T08:52:23.402Z,13.50
2022-09-28T08:55:16.298Z,13.60
2022-09-28T08:58:06.647Z,13.60
2022-09-28T09:00:42.063Z,13.70
2022-09-28T09:03:34.208Z,13.80
2022-09-28T09:06:27.634Z,13.80
2022-09-28T09:09:19.126Z,13.90
2022-09-28T09:12:21.445Z,14.00
2022-09-28T09:15:18.874Z,14.00
2022-09-28T09:18:06.707Z,14.10
2022-09-28T09:20:41.238Z,14.10
2022-09-28T09:23:35.616Z,14.20
2022-09-28T09:26:25.662Z,14.30
2022-09-28T09:29:26.553Z,14.40
2022-09-28T09:32:04.406Z,14.40
2022-09-28T09:35:00.755Z,14.40
2022-09-28T09:37:58.630Z,14.50
2022-09-28T09:40:48.733Z,14.50
2022-09-28T09:43:44.672Z,14.50
2022-09-28T09:46:25.505Z,14.70
2022-09-28T09:49:12.067Z,14.90
2022-09-28T09:52:07.005Z,14.90
2022-09-28T09:54:40.641Z,15.00
2022-09-28T09:57:34.916Z,15.10
2022-09-28T10:00:04.460Z,15.20
2022-09-28T10:02:34.627Z,15.30
2022-09-28T10:05:18.535Z,15.40
2022-09-28T10:08:13.804Z,15.50
2022-09-28T10:10:49.497Z,15.60
2022-09-28T10:13:18.845Z,15.80
2022-09-28T10:15:50.485Z,15.90
2022-09-28T10:18:20.163Z,16.00
2022-09-28T10:20:47.616Z,16.00
2022-09-28T10:23:27.952Z,16.10
2022-09-28T10:26:00.671Z,15.90
2022-09-28T10:28:40.684Z,15.80
2022-09-28T10:31:34.161Z,15.50
2022-09-28T10:34:01.112Z,15.40
2022-09-28T10:36:29.718Z,15.30
2022-09-28T10:38:57.988Z,15.30
2022-09-28T10:41:25.018Z,15.20
2022-09-28T10:44:06.798Z,15.10
2022-09-28T10:46:37.773Z,15.10
2022-09-28T10:49:16.571Z,15.10
2022-09-28T10:51:51.789Z,15.10
2022-09-28T10:54:28.422Z,15.30
2022-09-28T10:56:57.574Z,15.50
2022-09-28T10:59:30.537Z,15.70
2022-09-28T11:02:00.300Z,15.90
2022-09-28T11:04:38.315Z,15.90
2022-09-28T11:07:17.247Z,16.00
2022-09-28T11:09:48.848Z,16.00
2022-09-28T11:12:22.690Z,16.10
2022-09-28T11:14:56.551Z,16.10
2022-09-28T11:17:28.585Z,16.10
2022-09-28T11:19:57.739Z,16.10
2022-09-28T11:22:26.296Z,16.20
2022-09-28T11:25:12.268Z,16.30
2022-09-28T11:27:40.323Z,16.40
2022-09-28T11:30:24.601Z,16.50
2022-09-28T11:32:54.046Z,16.60
2022-09-28T11:35:43.117Z,16.70
2022-09-28T11:38:34.015Z,16.70
2022-09-28T11:41:12.240Z,16.80
2022-09-28T11:43:55.430Z,16.90
2022-09-28T11:47:00.678Z,17.00
2022-09-28T11:49:41.650Z,17.10
2022-09-28T11:52:18.884Z,17.10
2022-09-28T11:55:24.467Z,17.00
2022-09-28T11:58:02.070Z,16.90
2022-09-28T12:00:31.192Z,16.80
2022-09-28T12:03:12.208Z,16.60
2022-09-28T12:05:46.703Z,16.40
2022-09-28T12:08:28.185Z,16.10
2022-09-28T12:10:58.541Z,15.90
2022-09-28T12:13:33.048Z,15.80
2022-09-28T12:19:04.184Z,15.50
2022-09-28T12:21:44.773Z,15.40
2022-09-28T12:24:19.460Z,15.30
2022-09-28T12:27:09.695Z,15.20
2022-09-28T12:29:47.646Z,15.10
2022-09-28T12:32:41.418Z,15.00
2022-09-28T12:35:24.443Z,14.90
2022-09-28T12:37:59.972Z,14.90
2022-09-28T12:40:36.277Z,14.80
2022-09-28T12:43:43.316Z,14.70
2022-09-28T12:46:33.280Z,14.70
2022-09-28T12:52:19.017Z,14.50
2022-09-28T12:55:03.932Z,14.40
2022-09-28T12:57:56.587Z,14.30
2022-09-28T13:00:26.024Z,14.20
2022-09-28T13:03:14.049Z,14.00
2022-09-28T13:05:59.100Z,13.90
2022-09-28T13:08:36.785Z,13.70
2022-09-28T13:11:15.766Z,13.60
2022-09-28T13:13:54.541Z,13.30
2022-09-28T13:16:29.039Z,13.20
2022-09-28T13:19:17.042Z,13.10
2022-09-28T13:22:04.114Z,13.00
2022-09-28T13:24:38.846Z,12.90
2022-09-28T13:27:25.920Z,12.90
2022-09-28T13:29:55.684Z,12.90
2022-09-28T13:32:26.461Z,12.90
2022-09-28T13:34:54.783Z,12.90
2022-09-28T13:37:25.528Z,13.00
2022-09-28T13:39:56.407Z,13.00
2022-09-28T13:42:44.312Z,13.10
2022-09-28T13:45:22.476Z,13.20
2022-09-28T13:47:58.563Z,13.20
2022-09-28T13:50:54.846Z,13.30
2022-09-28T13:53:27.434Z,13.30
2022-09-28T13:56:22.430Z,13.40
2022-09-28T13:59:04.264Z,13.50
2022-09-28T14:01:42.738Z,13.50
2022-09-28T14:04:19.170Z,13.50
2022-09-28T14:07:08.891Z,13.50
2022-09-28T14:10:19.634Z,13.50
2022-09-28T14:12:52.108Z,13.60
2022-09-28T14:15:36.537Z,13.70
2022-09-28T14:18:31.817Z,13.70
2022-09-28T14:21:23.342Z,13.70
2022-09-28T14:24:34.770Z,13.80
2022-09-28T14:27:07.347Z,13.70
2022-09-28T14:29:39.282Z,13.70
2022-09-28T14:32:23.150Z,13.60
2022-09-28T14:35:04.526Z,13.50
2022-09-28T14:37:56.416Z,13.40
2022-09-28T14:40:48.692Z,13.30
2022-09-28T14:43:38.601Z,13.20
2022-09-28T14:46:10.047Z,13.10
2022-09-28T14:49:06.761Z,13.00
2022-09-28T14:51:35.431Z,12.90
2022-09-28T14:54:10.612Z,12.90
2022-09-28T14:56:43.668Z,12.80
2022-09-28T14:59:21.421Z,12.80
2022-09-28T15:01:57.286Z,12.70
2022-09-28T15:04:29.035Z,12.70
2022-09-28T15:06:56.377Z,12.60
2022-09-28T15:09:37.482Z,12.60
2022-09-28T15:12:09.855Z,12.60
2022-09-28T15:14:45.687Z,12.60
2022-09-28T15:17:21.233Z,12.50
2022-09-28T15:20:02.742Z,12.50
2022-09-28T15:22:33.588Z,12.50
2022-09-28T15:25:05.789Z,12.50
2022-09-28T15:27:37.969Z,12.50
2022-09-28T15:30:33.290Z,12.50
2022-09-28T15:33:25.109Z,12.50
2022-09-28T15:36:05.372Z,12.50
2022-09-28T15:38:34.069Z,12.60
2022-09-28T15:41:06.827Z,12.60
2022-09-28T15:43:34.698Z,12.60
2022-09-28T15:46:14.194Z,12.70
2022-09-28T15:48:51.631Z,12.80
2022-09-28T15:51:22.057Z,12.80
2022-09-28T15:54:02.877Z,12.90
2022-09-28T15:56:32.015Z,12.90
2022-09-28T15:59:16.903Z,13.00
2022-09-28T16:01:44.205Z,13.00
2022-09-28T16:04:38.416Z,13.00
2022-09-28T16:07:08.770Z,13.10
2022-09-28T16:10:04.647Z,13.10
2022-09-28T16:12:44.690Z,13.20
2022-09-28T16:15:28.309Z,13.20
2022-09-28T16:17:58.791Z,13.20
2022-09-28T16:20:37.889Z,13.20
2022-09-28T16:23:16.853Z,13.20
2022-09-28T16:26:02.258Z,13.20
2022-09-28T16:28:37.563Z,13.30
2022-09-28T16:31:29.354Z,13.30
2022-09-28T16:33:59.596Z,13.30
2022-09-28T16:36:29.908Z,13.30
2022-09-28T16:38:56.781Z,13.30
2022-09-28T16:41:27.489Z,13.20
2022-09-28T16:44:01.291Z,13.20
2022-09-28T16:46:38.665Z,13.10
2022-09-28T16:49:06.891Z,13.00
2022-09-28T16:51:34.052Z,13.00
2022-09-28T16:54:37.090Z,12.90
2022-09-28T16:57:05.692Z,12.80
2022-09-28T16:59:33.012Z,12.80
2022-09-28T17:02:00.235Z,12.80
2022-09-28T17:04:27.277Z,12.70
2022-09-28T17:06:56.059Z,12.70
2022-09-28T17:09:23.306Z,12.70
2022-09-28T17:11:56.166Z,12.70
2022-09-28T17:14:25.676Z,12.70
2022-09-28T17:17:08.107Z,12.70
2022-09-28T17:19:36.520Z,12.70
2022-09-28T17:22:07.910Z,12.70
2022-09-28T17:24:35.193Z,12.70
2022-09-28T17:27:06.818Z,12.70
2022-09-28T17:29:33.665Z,12.60
2022-09-28T17:32:00.370Z,12.60
2022-09-28T17:34:27.090Z,12.60
2022-09-28T17:36:58.364Z,12.60
2022-09-28T17:39:25.124Z,12.50
2022-09-28T17:41:54.357Z,12.50
2022-09-28T17:44:23.400Z,12.40
2022-09-28T17:46:53.939Z,12.40
2022-09-28T17:49:20.718Z,12.40
2022-09-28T17:51:50.383Z,12.30
2022-09-28T17:54:22.593Z,12.30
2022-09-28T17:56:52.673Z,12.20
2022-09-28T17:59:21.997Z,12.20
2022-09-28T18:01:51.088Z,12.20
2022-09-28T18:04:39.847Z,12.20
2022-09-28T18:07:07.095Z,12.10
2022-09-28T18:09:33.876Z,12.10
2022-09-28T18:12:04.095Z,12.10
2022-09-28T18:14:33.773Z,12.00
2022-09-28T18:17:03.583Z,11.90
2022-09-28T18:19:33.068Z,11.90
2022-09-28T18:22:01.978Z,11.90
2022-09-28T18:24:28.798Z,11.80
2022-09-28T18:26:58.127Z,11.80
2022-09-28T18:29:32.260Z,11.80
2022-09-28T18:32:00.015Z,11.70
2022-09-28T18:34:29.343Z,11.80
2022-09-28T18:36:56.277Z,11.70
2022-09-28T18:39:23.859Z,11.70
2022-09-28T18:41:50.813Z,11.70
2022-09-28T18:44:17.547Z,11.70
2022-09-28T18:46:47.420Z,11.70
2022-09-28T18:49:17.002Z,11.70
2022-09-28T18:51:46.205Z,11.70
2022-09-28T18:54:15.825Z,11.70
2022-09-28T18:56:45.717Z,11.60
2022-09-28T18:59:12.648Z,11.60
2022-09-28T19:01:41.779Z,11.60
2022-09-28T19:04:10.390Z,11.60
2022-09-28T19:06:44.483Z,11.50
2022-09-28T19:09:11.729Z,11.50
2022-09-28T19:11:43.550Z,11.40
2022-09-28T19:14:15.624Z,11.30
2022-09-28T19:16:44.404Z,11.30
2022-09-28T19:19:14.254Z,11.20
2022-09-28T19:21:44.752Z,11.20
2022-09-28T19:24:18.604Z,11.10
2022-09-28T19:26:53.593Z,11.10
2022-09-28T19:29:22.920Z,11.10
2022-09-28T19:31:50.061Z,11.10
2022-09-28T19:34:19.767Z,11.10
2022-09-28T19:36:53.549Z,11.10
2022-09-28T19:39:23.038Z,11.10
2022-09-28T19:41:51.260Z,11.10
2022-09-28T19:44:25.519Z,11.10
2022-09-28T19:46:58.304Z,11.10
2022-09-28T19:49:27.348Z,11.10
2022-09-28T19:52:14.165Z,11.00
2022-09-28T19:54:52.073Z,11.00
2022-09-28T19:57:19.551Z,11.00
2022-09-28T19:59:49.581Z,11.00
2022-09-28T20:02:19.668Z,11.00
2022-09-28T20:04:46.494Z,11.00
2022-09-28T20:07:13.885Z,11.00
2022-09-28T20:09:40.947Z,10.90
2022-09-28T20:12:07.879Z,10.90
2022-09-28T20:14:38.213Z,10.90
2022-09-28T20:17:07.407Z,10.90
2022-09-28T20:19:36.380Z,10.90
2022-09-28T20:22:03.489Z,10.90
2022-09-28T20:24:31.644Z,10.90
2022-09-28T20:26:58.835Z,10.90
2022-09-28T20:29:28.899Z,10.80
2022-09-28T20:31:58.320Z,10.80
2022-09-28T20:34:27.254Z,10.80
2022-09-28T20:36:54.085Z,10.90
2022-09-28T20:39:23.183Z,10.80
2022-09-28T20:41:49.976Z,10.80
2022-09-28T20:44:19.009Z,10.80
2022-09-28T20:46:50.144Z,10.70
2022-09-28T20:49:22.393Z,10.70
2022-09-28T20:51:49.142Z,10.60
2022-09-28T20:54:15.863Z,10.60
2022-09-28T20:56:42.709Z,10.50
2022-09-28T20:59:12.662Z,10.50
2022-09-28T21:01:39.655Z,10.50
2022-09-28T21:04:07.712Z,10.50
2022-09-28T21:06:37.111Z,10.40
2022-09-28T21:09:05.607Z,10.40
2022-09-28T21:11:35.366Z,10.30
2022-09-28T21:14:06.034Z,10.30
2022-09-28T21:16:34.384Z,10.30
2022-09-28T21:19:01.130Z,10.20
2022-09-28T21:21:28.174Z,10.20
2022-09-28T21:23:56.323Z,10.20
2022-09-28T21:26:28.329Z,10.20
2022-09-28T21:29:00.743Z,10.20
2022-09-28T21:31:36.621Z,10.20
2022-09-28T21:34:05.780Z,10.30
2022-09-28T21:36:32.839Z,10.30
2022-09-28T21:38:59.527Z,10.30
2022-09-28T21:41:28.699Z,10.40
2022-09-28T21:43:55.371Z,10.30
2022-09-28T21:46:22.508Z,10.40
2022-09-28T21:48:53.582Z,10.40
2022-09-28T21:51:20.471Z,10.50
2022-09-28T21:53:49.169Z,10.50
2022-09-28T21:56:16.005Z,10.50
2022-09-28T21:58:42.818Z,10.50
2022-09-28T22:01:19.841Z,10.60
2022-09-28T22:03:52.134Z,10.60
2022-09-28T22:06:20.850Z,10.60
2022-09-28T22:08:48.413Z,10.60
2022-09-28T22:11:24.337Z,10.60
2022-09-28T22:13:56.792Z,10.70
2022-09-28T22:16:26.133Z,10.70
2022-09-28T22:18:53.425Z,10.70
2022-09-28T22:21:22.901Z,10.70
2022-09-28T22:23:49.999Z,10.80
2022-09-28T22:26:23.876Z,10.80
2022-09-28T22:28:53.686Z,10.80
2022-09-28T22:31:23.421Z,10.80
2022-09-28T22:33:50.162Z,10.80
2022-09-28T22:36:17.178Z,10.90
2022-09-28T22:38:44.950Z,10.90
2022-09-28T22:41:13.028Z,10.90
2022-09-28T22:43:39.753Z,10.90
2022-09-28T22:46:33.007Z,10.90
2022-09-28T22:49:00.296Z,10.90
2022-09-28T22:51:29.104Z,10.90
2022-09-28T22:53:58.131Z,10.90
2022-09-28T22:56:27.514Z,10.90
2022-09-28T22:58:54.300Z,10.90
2022-09-28T23:01:25.201Z,10.80
2022-09-28T23:03:53.071Z,10.80
2022-09-28T23:06:22.510Z,10.80
2022-09-28T23:11:43.022Z,10.70
2022-09-28T23:14:12.180Z,10.70
2022-09-28T23:16:41.261Z,10.60
2022-09-28T23:19:07.911Z,10.60
2022-09-28T23:21:34.650Z,10.60
2022-09-28T23:24:01.656Z,10.60
2022-09-28T23:26:31.380Z,10.60
2022-09-28T23:28:58.959Z,10.50
2022-09-28T23:31:31.029Z,10.50
2022-09-28T23:33:59.785Z,10.50
2022-09-28T23:36:29.720Z,10.50
2022-09-28T23:38:57.721Z,10.50
2022-09-28T23:41:24.583Z,10.50
2022-09-28T23:43:51.432Z,10.50
2022-09-28T23:46:21.366Z,10.40
2022-09-28T23:48:49.150Z,10.40
2022-09-28T23:51:18.132Z,10.40
2022-09-28T23:53:45.424Z,10.40
2022-09-28T23:56:12.813Z,10.40
2022-09-28T23:58:39.546Z,10.40
